Metar z połowy godziny Komunikat METAR ze strony awiacja.imgw.pl Metar G30 EPWR METAR EPWR 162230Z 14003KT CAVOK M03/M05 Q1017 =